createdAt,value
2019-03-21T00:02:27.571Z,95.25
2019-03-21T00:05:00.693Z,86.60
2019-03-21T00:07:33.979Z,90.45
2019-03-21T00:10:21.663Z,90.20
2019-03-21T00:13:05.096Z,85.87
2019-03-21T00:15:49.216Z,77.55
2019-03-21T00:18:22.326Z,99.77
2019-03-21T00:20:55.756Z,93.67
2019-03-21T00:23:29.762Z,96.00
2019-03-21T00:26:02.893Z,100.05
2019-03-21T00:28:36.126Z,104.50
2019-03-21T00:31:09.589Z,104.43
2019-03-21T00:33:42.814Z,106.87
2019-03-21T00:36:21.087Z,105.87
2019-03-21T00:38:53.731Z,111.08
2019-03-21T00:41:27.165Z,106.78
2019-03-21T00:44:00.913Z,110.57
2019-03-21T00:46:33.662Z,108.52
2019-03-21T00:49:07.410Z,105.43
2019-03-21T00:51:40.386Z,116.10
2019-03-21T00:54:12.981Z,102.92
2019-03-21T00:56:45.699Z,114.25
2019-03-21T00:59:18.980Z,107.32
2019-03-21T01:01:51.890Z,103.67
2019-03-21T01:04:27.339Z,111.68
2019-03-21T01:07:01.185Z,106.55
2019-03-21T01:09:35.401Z,116.30
2019-03-21T01:12:08.267Z,103.10
2019-03-21T01:14:41.406Z,113.05
2019-03-21T01:17:14.631Z,120.87
2019-03-21T01:19:47.690Z,105.70
2019-03-21T01:22:20.766Z,110.63
2019-03-21T01:24:53.679Z,111.83
2019-03-21T01:27:26.600Z,111.47
2019-03-21T01:29:59.573Z,123.92
2019-03-21T01:32:32.770Z,120.15
2019-03-21T01:35:06.715Z,114.40
2019-03-21T01:37:39.621Z,115.10
2019-03-21T01:40:15.317Z,116.10
2019-03-21T01:42:47.899Z,116.57
2019-03-21T01:45:23.557Z,133.20
2019-03-21T01:47:57.574Z,113.72
2019-03-21T01:50:33.022Z,110.22
2019-03-21T01:53:07.680Z,122.72
2019-03-21T01:55:41.371Z,119.62
2019-03-21T01:58:14.769Z,126.30
2019-03-21T02:00:54.452Z,132.12
2019-03-21T02:03:27.710Z,119.75
2019-03-21T02:06:01.411Z,131.90
2019-03-21T02:08:34.615Z,122.45
2019-03-21T02:11:38.613Z,129.38
2019-03-21T02:14:11.046Z,129.25
2019-03-21T02:16:45.028Z,124.33
2019-03-21T02:19:17.991Z,115.70
2019-03-21T02:21:52.476Z,123.20
2019-03-21T02:24:28.870Z,126.70
2019-03-21T02:27:04.278Z,127.58
2019-03-21T02:29:37.253Z,127.82
2019-03-21T02:32:10.974Z,136.32
2019-03-21T02:34:44.745Z,123.53
2019-03-21T02:37:17.827Z,129.00
2019-03-21T02:40:00.001Z,114.10
2019-03-21T02:42:31.022Z,120.97
2019-03-21T02:45:09.040Z,120.22
2019-03-21T02:47:40.101Z,124.72
2019-03-21T02:50:19.230Z,125.90
2019-03-21T02:52:52.631Z,131.45
2019-03-21T02:55:26.043Z,124.90
2019-03-21T02:58:01.482Z,130.47
2019-03-21T03:00:43.141Z,110.28
2019-03-21T03:03:18.220Z,118.67
2019-03-21T03:05:53.266Z,113.25
2019-03-21T03:08:27.070Z,121.72
2019-03-21T03:11:02.088Z,121.60
2019-03-21T03:13:35.727Z,113.72
2019-03-21T03:16:09.295Z,122.92
2019-03-21T03:18:43.221Z,128.15
2019-03-21T03:21:16.131Z,121.20
2019-03-21T03:23:49.595Z,113.42
2019-03-21T03:26:24.182Z,110.57
2019-03-21T03:29:17.563Z,109.12
2019-03-21T03:31:51.032Z,128.35
2019-03-21T03:34:24.168Z,119.20
2019-03-21T03:36:57.276Z,115.35
2019-03-21T03:39:31.538Z,118.15
2019-03-21T03:42:05.013Z,120.25
2019-03-21T03:44:38.028Z,118.00
2019-03-21T03:47:12.534Z,112.95
2019-03-21T03:49:45.903Z,116.88
2019-03-21T03:52:19.171Z,122.87
2019-03-21T03:54:52.739Z,111.65
2019-03-21T03:57:26.149Z,119.33
2019-03-21T03:59:58.975Z,128.68
2019-03-21T04:02:32.893Z,108.05
2019-03-21T04:05:07.013Z,120.28
2019-03-21T04:07:40.770Z,134.18
2019-03-21T04:10:16.284Z,117.08
2019-03-21T04:12:49.070Z,127.17
2019-03-21T04:15:23.013Z,128.27
2019-03-21T04:17:55.755Z,122.20
2019-03-21T04:20:34.353Z,114.97
2019-03-21T04:23:08.718Z,119.30
2019-03-21T04:26:03.555Z,120.50
2019-03-21T04:28:37.087Z,120.70
2019-03-21T04:31:10.719Z,112.30
2019-03-21T04:33:45.564Z,116.08
2019-03-21T04:36:19.360Z,111.35
2019-03-21T04:38:53.175Z,116.45
2019-03-21T04:41:29.314Z,122.62
2019-03-21T04:44:03.225Z,113.77
2019-03-21T04:46:40.734Z,125.02
2019-03-21T04:49:13.861Z,118.17
2019-03-21T04:51:47.424Z,105.25
2019-03-21T04:54:21.238Z,116.20
2019-03-21T04:56:54.514Z,113.72
2019-03-21T04:59:28.168Z,111.03
2019-03-21T05:02:01.389Z,118.35
2019-03-21T05:04:34.483Z,118.87
2019-03-21T05:07:07.601Z,117.65
2019-03-21T05:09:40.473Z,122.30
2019-03-21T05:12:14.091Z,117.62
2019-03-21T05:14:47.148Z,123.97
2019-03-21T05:17:20.325Z,123.92
2019-03-21T05:19:53.446Z,122.82
2019-03-21T05:22:27.270Z,118.87
2019-03-21T05:25:00.006Z,115.22
2019-03-21T05:27:33.649Z,121.95
2019-03-21T05:30:21.610Z,118.77
2019-03-21T05:32:54.779Z,124.20
2019-03-21T05:35:27.922Z,129.47
2019-03-21T05:38:04.425Z,128.87
2019-03-21T05:40:38.916Z,133.70
2019-03-21T05:43:32.918Z,124.70
2019-03-21T05:46:06.747Z,119.50
2019-03-21T05:48:39.635Z,122.42
2019-03-21T05:51:33.385Z,120.87
2019-03-21T05:54:06.818Z,120.13
2019-03-21T05:56:39.950Z,122.00
2019-03-21T05:59:13.641Z,113.77
2019-03-21T06:01:47.830Z,109.87
2019-03-21T06:04:21.231Z,116.37
2019-03-21T06:07:02.807Z,115.52
2019-03-21T06:09:36.281Z,124.15
2019-03-21T06:12:10.230Z,113.50
2019-03-21T06:14:58.599Z,116.35
2019-03-21T06:17:33.045Z,115.52
2019-03-21T06:20:08.853Z,114.37
2019-03-21T06:22:50.500Z,108.27
2019-03-21T06:25:44.977Z,112.42
2019-03-21T06:28:19.064Z,119.65
2019-03-21T06:30:53.754Z,119.22
2019-03-21T06:33:30.564Z,111.57
2019-03-21T06:36:08.427Z,112.60
2019-03-21T06:39:04.396Z,114.28
2019-03-21T06:41:43.300Z,112.97
2019-03-21T06:44:19.580Z,113.55
2019-03-21T06:46:52.047Z,112.15
2019-03-21T06:49:25.594Z,117.10
2019-03-21T06:51:59.265Z,111.30
2019-03-21T06:54:35.947Z,112.47
2019-03-21T06:57:08.738Z,108.67
2019-03-21T06:59:42.128Z,109.90
2019-03-21T07:02:14.656Z,105.17
2019-03-21T07:04:48.406Z,104.15
2019-03-21T07:07:23.396Z,109.17
2019-03-21T07:09:57.051Z,104.92
2019-03-21T07:12:30.008Z,105.67
2019-03-21T07:15:04.451Z,109.00
2019-03-21T07:17:40.533Z,106.10
2019-03-21T07:20:19.174Z,114.25
2019-03-21T07:22:53.526Z,104.63
2019-03-21T07:25:27.063Z,116.90
2019-03-21T07:28:03.955Z,105.05
2019-03-21T07:30:38.571Z,108.40
2019-03-21T07:33:12.759Z,108.10
2019-03-21T07:35:46.170Z,101.90
2019-03-21T07:38:19.630Z,108.60
2019-03-21T07:40:57.645Z,95.97
2019-03-21T07:43:38.809Z,100.60
2019-03-21T07:46:13.694Z,100.78
2019-03-21T07:48:52.000Z,100.97
2019-03-21T07:51:26.813Z,96.75
2019-03-21T07:54:14.838Z,103.47
2019-03-21T07:56:48.041Z,101.60
2019-03-21T07:59:22.872Z,94.72
2019-03-21T08:01:55.676Z,116.15
2019-03-21T08:04:29.199Z,106.65
2019-03-21T08:07:04.397Z,102.27
2019-03-21T08:09:37.768Z,106.17
2019-03-21T08:12:11.111Z,106.63
2019-03-21T08:14:44.628Z,101.45
2019-03-21T08:17:18.517Z,108.90
2019-03-21T08:19:51.713Z,103.47
2019-03-21T08:22:24.935Z,100.95
2019-03-21T08:24:58.303Z,107.05
2019-03-21T08:27:35.438Z,116.53
2019-03-21T08:30:26.174Z,108.87
2019-03-21T08:33:00.029Z,114.97
2019-03-21T08:35:33.269Z,114.05
2019-03-21T08:38:08.388Z,105.17
2019-03-21T08:40:42.711Z,108.20
2019-03-21T08:43:16.681Z,109.20
2019-03-21T08:45:57.963Z,119.15
2019-03-21T08:48:34.961Z,111.32
2019-03-21T08:51:09.025Z,110.17
2019-03-21T08:53:43.205Z,109.20
2019-03-21T08:56:21.354Z,88.33
2019-03-21T08:58:54.700Z,108.27
2019-03-21T09:01:28.232Z,105.72
2019-03-21T09:04:02.786Z,100.38
2019-03-21T09:06:36.246Z,101.38
2019-03-21T09:09:10.917Z,99.85
2019-03-21T09:11:44.630Z,109.97
2019-03-21T09:14:18.197Z,109.80
2019-03-21T09:16:52.128Z,101.50
2019-03-21T09:19:27.463Z,93.10
2019-03-21T09:22:01.138Z,99.62
2019-03-21T09:24:36.310Z,116.20
2019-03-21T09:27:09.858Z,98.55
2019-03-21T09:29:53.068Z,71.62
2019-03-21T09:32:18.554Z,109.92
2019-03-21T09:35:02.255Z,96.53
2019-03-21T09:37:36.257Z,112.72
2019-03-21T09:40:12.058Z,102.50
2019-03-21T09:42:45.722Z,104.78
2019-03-21T09:45:19.539Z,121.62
2019-03-21T09:47:52.726Z,106.67
2019-03-21T09:50:30.826Z,104.97
2019-03-21T09:53:04.350Z,97.95
2019-03-21T09:55:37.630Z,94.58
2019-03-21T09:58:12.076Z,106.10
2019-03-21T10:00:46.835Z,97.20
2019-03-21T10:03:20.515Z,100.02
2019-03-21T10:05:54.665Z,97.33
2019-03-21T10:08:28.649Z,92.65
2019-03-21T10:11:02.809Z,100.05
2019-03-21T10:13:36.321Z,87.70
2019-03-21T10:16:10.465Z,92.47
2019-03-21T10:18:44.294Z,90.80
2019-03-21T10:21:18.040Z,92.65
2019-03-21T10:23:52.013Z,86.53
2019-03-21T10:26:25.906Z,84.22
2019-03-21T10:29:01.230Z,82.37
2019-03-21T10:31:35.301Z,71.92
2019-03-21T10:34:09.172Z,79.10
2019-03-21T10:36:45.149Z,74.90
2019-03-21T10:39:18.937Z,73.07
2019-03-21T10:41:53.729Z,76.30
2019-03-21T10:44:27.303Z,79.15
2019-03-21T10:47:02.055Z,64.00
2019-03-21T10:49:38.475Z,80.30
2019-03-21T10:52:13.628Z,73.97
2019-03-21T10:54:54.380Z,73.72
2019-03-21T10:57:27.762Z,73.60
2019-03-21T11:00:03.790Z,79.05
2019-03-21T11:02:38.199Z,79.07
2019-03-21T11:05:12.167Z,86.45
2019-03-21T11:07:47.591Z,72.00
2019-03-21T11:10:21.780Z,79.50
2019-03-21T11:12:55.135Z,84.92
2019-03-21T11:15:28.793Z,70.78
2019-03-21T11:18:03.384Z,87.15
2019-03-21T11:20:41.079Z,89.03
2019-03-21T11:23:14.475Z,79.00
2019-03-21T11:25:48.686Z,85.53
2019-03-21T11:28:28.394Z,88.82
2019-03-21T11:31:02.672Z,81.17
2019-03-21T11:33:35.952Z,85.57
2019-03-21T11:36:10.570Z,83.78
2019-03-21T11:38:44.403Z,82.75
2019-03-21T11:41:20.584Z,79.00
2019-03-21T11:43:55.072Z,95.67
2019-03-21T11:46:28.676Z,87.72
2019-03-21T11:49:01.976Z,84.60
2019-03-21T11:51:36.751Z,86.45
2019-03-21T11:54:17.068Z,93.42
2019-03-21T11:56:51.790Z,86.02
2019-03-21T11:59:41.363Z,90.72
2019-03-21T12:02:02.972Z,90.35
2019-03-21T12:04:36.493Z,94.83
2019-03-21T12:07:23.233Z,88.15
2019-03-21T12:10:09.165Z,87.50
2019-03-21T12:12:43.109Z,93.20
2019-03-21T12:15:16.693Z,85.70
2019-03-21T12:17:50.351Z,90.00
2019-03-21T12:20:36.006Z,81.78
2019-03-21T12:23:10.290Z,75.15
2019-03-21T12:25:44.241Z,77.32
2019-03-21T12:28:17.962Z,82.53
2019-03-21T12:30:54.495Z,79.75
2019-03-21T12:33:30.013Z,81.40
2019-03-21T12:36:04.043Z,91.42
2019-03-21T12:38:37.729Z,75.92
2019-03-21T12:41:14.759Z,83.78
2019-03-21T12:43:48.492Z,81.90
2019-03-21T12:46:22.439Z,79.50
2019-03-21T12:48:56.655Z,84.75
2019-03-21T12:51:30.667Z,80.97
2019-03-21T12:54:04.197Z,84.10
2019-03-21T12:56:37.546Z,79.72
2019-03-21T12:59:11.397Z,79.35
2019-03-21T13:01:45.029Z,78.65
2019-03-21T13:04:19.022Z,73.37
2019-03-21T13:06:53.760Z,77.40
2019-03-21T13:09:27.862Z,75.78
2019-03-21T13:12:01.724Z,74.77
2019-03-21T13:14:36.165Z,63.52
2019-03-21T13:17:10.698Z,37.10
2019-03-21T13:19:44.128Z,79.00
2019-03-21T13:22:18.219Z,53.65
2019-03-21T13:24:53.715Z,58.78
2019-03-21T13:27:27.483Z,73.65
2019-03-21T13:30:03.605Z,79.42
2019-03-21T13:32:38.028Z,44.73
2019-03-21T13:35:11.984Z,78.35
2019-03-21T13:37:46.071Z,82.05
2019-03-21T13:40:20.022Z,59.48
2019-03-21T13:42:54.709Z,77.53
2019-03-21T13:45:31.766Z,57.88
2019-03-21T13:48:05.327Z,87.65
2019-03-21T13:50:41.582Z,83.03
2019-03-21T13:53:18.858Z,75.52
2019-03-21T13:55:50.198Z,68.00
2019-03-21T13:58:23.634Z,92.35
2019-03-21T14:00:59.049Z,86.60
2019-03-21T14:03:32.683Z,87.55
2019-03-21T14:06:10.144Z,87.85
2019-03-21T14:08:46.786Z,93.03
2019-03-21T14:11:21.770Z,74.67
2019-03-21T14:13:56.806Z,85.83
2019-03-21T14:16:30.407Z,84.83
2019-03-21T14:19:04.892Z,91.00
2019-03-21T14:21:39.669Z,92.25
2019-03-21T14:24:13.340Z,89.40
2019-03-21T14:26:48.222Z,103.02
2019-03-21T14:29:24.273Z,106.35
2019-03-21T14:31:57.786Z,72.62
2019-03-21T14:34:33.789Z,73.37
2019-03-21T14:37:07.314Z,103.40
2019-03-21T14:39:43.246Z,30.55
2019-03-21T14:42:21.614Z,101.12
2019-03-21T14:44:55.462Z,101.18
2019-03-21T14:47:36.046Z,100.87
2019-03-21T14:50:04.204Z,105.85
2019-03-21T14:52:40.985Z,106.40
2019-03-21T14:55:19.590Z,108.87
2019-03-21T14:57:56.850Z,105.37
2019-03-21T15:00:30.639Z,94.05
2019-03-21T15:03:05.298Z,112.45
2019-03-21T15:05:38.751Z,105.12
2019-03-21T15:08:21.134Z,93.95
2019-03-21T15:10:54.927Z,104.38
2019-03-21T15:13:30.574Z,101.92
2019-03-21T15:16:06.316Z,105.80
2019-03-21T15:18:43.746Z,128.60
2019-03-21T15:21:18.633Z,105.07
2019-03-21T15:23:59.448Z,116.67
2019-03-21T15:26:30.015Z,113.22
2019-03-21T15:29:03.751Z,92.82
2019-03-21T15:31:39.417Z,130.67
2019-03-21T15:34:12.990Z,113.72
2019-03-21T15:36:48.748Z,128.45
2019-03-21T15:39:22.658Z,67.40
2019-03-21T15:41:56.134Z,127.10
2019-03-21T15:44:30.274Z,123.97
2019-03-21T15:47:04.337Z,110.78
2019-03-21T15:49:37.763Z,99.05
2019-03-21T15:52:11.693Z,70.15
2019-03-21T15:54:45.152Z,46.92
2019-03-21T15:57:19.016Z,52.48
2019-03-21T15:59:52.638Z,83.22
2019-03-21T16:02:26.357Z,59.45
2019-03-21T16:05:01.572Z,78.42
2019-03-21T16:07:35.654Z,76.47
2019-03-21T16:10:09.878Z,72.85
2019-03-21T16:12:43.446Z,61.60
2019-03-21T16:15:16.995Z,73.12
2019-03-21T16:17:50.709Z,100.58
2019-03-21T16:20:26.163Z,83.80
2019-03-21T16:22:59.396Z,45.67
2019-03-21T16:25:33.671Z,83.78
2019-03-21T16:28:10.526Z,85.17
2019-03-21T16:30:45.606Z,72.53
2019-03-21T16:33:23.588Z,73.35
2019-03-21T16:36:02.671Z,76.87
2019-03-21T16:38:46.708Z,63.38
2019-03-21T16:41:27.049Z,82.08
2019-03-21T16:44:04.470Z,83.15
2019-03-21T16:46:40.894Z,80.85
2019-03-21T16:49:15.169Z,73.05
2019-03-21T16:52:16.587Z,66.47
2019-03-21T16:54:53.147Z,89.05
2019-03-21T16:57:30.240Z,50.90
2019-03-21T17:00:04.813Z,78.57
2019-03-21T17:02:39.666Z,66.42
2019-03-21T17:05:13.881Z,87.97
2019-03-21T17:07:47.425Z,64.82
2019-03-21T17:10:40.488Z,143.35
2019-03-21T17:13:15.394Z,191.43
2019-03-21T17:15:50.014Z,198.45
2019-03-21T17:18:43.784Z,111.28
2019-03-21T17:21:18.963Z,161.57
2019-03-21T17:23:52.138Z,112.15
2019-03-21T17:26:35.889Z,106.92
2019-03-21T17:29:09.694Z,157.40
2019-03-21T17:31:57.149Z,116.57
2019-03-21T17:34:30.790Z,155.35
2019-03-21T17:37:05.116Z,95.40
2019-03-21T17:39:40.211Z,104.75
2019-03-21T17:42:13.684Z,81.92
2019-03-21T17:44:51.557Z,78.20
2019-03-21T17:47:26.054Z,123.75
2019-03-21T17:50:10.864Z,96.00
2019-03-21T17:52:55.526Z,113.57
2019-03-21T17:55:33.796Z,123.65
2019-03-21T17:58:07.688Z,123.87
2019-03-21T18:00:47.273Z,136.75
2019-03-21T18:03:21.251Z,118.22
2019-03-21T18:05:54.846Z,109.22
2019-03-21T18:08:29.729Z,116.47
2019-03-21T18:11:03.107Z,102.87
2019-03-21T18:13:36.895Z,89.65
2019-03-21T18:16:10.944Z,93.20
2019-03-21T18:18:45.118Z,93.55
2019-03-21T18:21:18.811Z,103.60
2019-03-21T18:23:53.338Z,51.83
2019-03-21T18:26:26.959Z,67.80
2019-03-21T18:29:01.153Z,58.73
2019-03-21T18:31:34.791Z,82.92
2019-03-21T18:34:10.149Z,61.02
2019-03-21T18:36:44.247Z,80.57
2019-03-21T18:39:18.175Z,79.87
2019-03-21T18:41:51.822Z,76.72
2019-03-21T18:44:25.718Z,68.07
2019-03-21T18:46:59.343Z,91.12
2019-03-21T18:49:33.560Z,70.47
2019-03-21T18:52:07.137Z,54.65
2019-03-21T18:54:41.206Z,69.07
2019-03-21T18:57:15.182Z,66.50
2019-03-21T18:59:49.275Z,74.35
2019-03-21T19:02:23.326Z,48.42
2019-03-21T19:05:05.702Z,60.55
2019-03-21T19:07:39.275Z,67.17
2019-03-21T19:10:14.993Z,63.52
2019-03-21T19:12:48.623Z,68.60
2019-03-21T19:15:28.505Z,67.82
2019-03-21T19:18:02.183Z,67.72
2019-03-21T19:20:36.339Z,57.88
2019-03-21T19:23:09.954Z,62.93
2019-03-21T19:25:43.873Z,65.12
2019-03-21T19:28:17.571Z,67.22
2019-03-21T19:30:51.795Z,62.38
2019-03-21T19:33:25.468Z,32.93
2019-03-21T19:35:58.986Z,40.55
2019-03-21T19:38:32.627Z,30.90
2019-03-21T19:41:06.326Z,35.78
2019-03-21T19:43:39.966Z,55.60
2019-03-21T19:46:13.857Z,60.67
2019-03-21T19:48:50.498Z,63.40
2019-03-21T19:51:24.632Z,62.70
2019-03-21T19:53:58.440Z,54.15
2019-03-21T19:56:32.353Z,71.20
2019-03-21T19:59:06.004Z,70.28
2019-03-21T20:01:39.914Z,62.27
2019-03-21T20:04:13.922Z,60.63
2019-03-21T20:06:48.092Z,40.25
2019-03-21T20:09:22.034Z,64.80
2019-03-21T20:11:56.131Z,63.40
2019-03-21T20:14:33.792Z,59.63
2019-03-21T20:17:07.450Z,36.40
2019-03-21T20:19:42.085Z,69.72
2019-03-21T20:22:16.020Z,64.97
2019-03-21T20:24:50.667Z,66.77
2019-03-21T20:27:24.674Z,78.85
2019-03-21T20:29:58.324Z,81.53
2019-03-21T20:32:32.721Z,81.72
2019-03-21T20:35:07.919Z,92.53
2019-03-21T20:37:42.141Z,85.25
2019-03-21T20:40:18.656Z,82.67
2019-03-21T20:42:52.797Z,82.57
2019-03-21T20:45:26.113Z,87.75
2019-03-21T20:47:59.923Z,82.75
2019-03-21T20:50:33.781Z,89.72
2019-03-21T20:53:07.846Z,83.37
2019-03-21T20:55:41.472Z,84.03
2019-03-21T20:58:15.445Z,92.75
2019-03-21T21:00:49.090Z,87.45
2019-03-21T21:03:23.866Z,97.22
2019-03-21T21:05:57.807Z,94.35
2019-03-21T21:08:31.239Z,93.90
2019-03-21T21:11:04.926Z,87.88
2019-03-21T21:13:39.024Z,89.25
2019-03-21T21:16:12.660Z,81.17
2019-03-21T21:18:52.290Z,77.70
2019-03-21T21:21:26.560Z,88.05
2019-03-21T21:24:00.467Z,82.42
2019-03-21T21:26:34.426Z,84.15
2019-03-21T21:29:08.006Z,74.27
2019-03-21T21:31:41.657Z,80.38
2019-03-21T21:34:15.544Z,77.72
2019-03-21T21:36:49.519Z,75.62
2019-03-21T21:39:24.652Z,82.22
2019-03-21T21:41:57.991Z,73.35
2019-03-21T21:44:32.243Z,69.65
2019-03-21T21:47:05.853Z,77.20
2019-03-21T21:49:40.059Z,68.92
2019-03-21T21:52:14.072Z,74.17
2019-03-21T21:54:49.224Z,79.30
2019-03-21T21:57:23.004Z,67.58
2019-03-21T21:59:56.928Z,72.95
2019-03-21T22:02:30.875Z,72.67
2019-03-21T22:05:04.717Z,66.55
2019-03-21T22:07:38.787Z,76.90
2019-03-21T22:10:15.029Z,67.60
2019-03-21T22:12:48.992Z,72.78
2019-03-21T22:15:22.264Z,62.90
2019-03-21T22:17:56.109Z,80.17
2019-03-21T22:20:29.955Z,73.12
2019-03-21T22:23:03.934Z,84.15
2019-03-21T22:25:37.177Z,72.87
2019-03-21T22:28:10.926Z,75.42
2019-03-21T22:30:44.390Z,69.05
2019-03-21T22:33:18.210Z,76.02
2019-03-21T22:35:52.259Z,79.58
2019-03-21T22:38:26.213Z,70.22
2019-03-21T22:41:00.083Z,71.60
2019-03-21T22:43:33.770Z,78.97
2019-03-21T22:46:07.642Z,81.08
2019-03-21T22:48:41.868Z,70.25
2019-03-21T22:51:15.737Z,76.25
2019-03-21T22:53:49.831Z,72.08
2019-03-21T22:56:23.746Z,75.87
2019-03-21T22:58:57.330Z,76.15
2019-03-21T23:01:30.944Z,81.82
2019-03-21T23:04:04.738Z,69.22
2019-03-21T23:06:38.483Z,78.10
2019-03-21T23:09:12.432Z,86.42
2019-03-21T23:11:46.170Z,79.10
2019-03-21T23:14:20.171Z,83.15
2019-03-21T23:16:54.199Z,76.87
2019-03-21T23:19:28.103Z,88.17
2019-03-21T23:22:02.861Z,72.90
2019-03-21T23:24:36.631Z,77.75
2019-03-21T23:27:10.707Z,68.22
2019-03-21T23:29:44.508Z,72.53
2019-03-21T23:32:18.382Z,73.17
2019-03-21T23:34:52.103Z,77.37
2019-03-21T23:37:26.294Z,73.10
2019-03-21T23:40:00.736Z,72.42
2019-03-21T23:42:34.426Z,73.17
2019-03-21T23:45:09.519Z,76.82
2019-03-21T23:47:52.168Z,69.25
2019-03-21T23:50:25.519Z,72.45
2019-03-21T23:52:59.786Z,77.25
2019-03-21T23:55:35.389Z,76.25
2019-03-21T23:58:11.496Z,76.05
